PWSweather.com
Personal Weather Stations
Station Observations
KVAGLENALL
West Henrico, Glen Allen, VA 23060-6503

West HenricoGlen Allen, VA 23060-6503

Lat: 37.6554, Lon: -77.5693

Elevation: 273

Station Type: Davis Vantage Pro II

www.glenallenweather.com

High Low Average
Temperature 42.3°F5.7°C 27.7°F-2.4°C 34.4°F1.3°C
Dew Point 36.1°F2.3°C 20.1°F-6.6°C 25.4°F-3.7°C
Winds 10.0 mph 16.1 kmh Calm Calm 4.0 mph SE6.4 kmh SE
Wind Gusts 15.1 mph24.3 kmh -- 7.0 mph11.3 kmh
Humidity 88% 50% 70%
Pressure 30.49 in1032.5 mb 30.17 in1021.7 mb -
Precipitation 0.00 in0.0 mm - -
Hour Temp Dew Point Humidity Winds Wind Gusts Pressure Precip Precip Rate Daily Precip Total
12:00 AM 39.4°F4.1°C 36.1°F2.3°C 88% 4.0 mph NE6.4 kmh NE 4.0 mph6.4 kmh 30.17 in1021.7 mb 0.00 in0.0 mm 0.00 in0.0 mm 0.00 in0.0 mm
12:15 AM 39.1°F3.9°C 35.6°F2.0°C 87% 8.0 mph NNE12.9 kmh NNE 15.1 mph24.3 kmh 30.19 in1022.4 mb 0.00 in0.0 mm 0.00 in0.0 mm 0.00 in0.0 mm
12:30 AM 38.6°F3.7°C 34.2°F1.2°C 84% 10.0 mph NE16.1 kmh NE 13.1 mph21.1 kmh 30.20 in1022.7 mb 0.00 in0.0 mm 0.00 in0.0 mm 0.00 in0.0 mm
12:45 AM 38.1°F3.4°C 32.8°F0.4°C 81% 3.0 mph NW4.8 kmh NW 12.1 mph19.5 kmh 30.21 in1023.0 mb 0.00 in0.0 mm 0.00 in0.0 mm 0.00 in0.0 mm
01:00 AM 37.7°F3.2°C 32.7°F0.4°C 82% 8.0 mph NNE12.9 kmh NNE 9.1 mph14.6 kmh 30.22 in1023.4 mb 0.00 in0.0 mm 0.00 in0.0 mm 0.00 in0.0 mm
01:15 AM 37.3°F2.9°C 32.6°F0.3°C 83% 4.0 mph NE6.4 kmh NE 8.1 mph13.0 kmh 30.22 in1023.4 mb 0.00 in0.0 mm 0.00 in0.0 mm 0.00 in0.0 mm
01:30 AM 36.9°F2.7°C 31.3°F-0.4°C 80% 6.0 mph N9.7 kmh N 15.1 mph24.3 kmh 30.23 in1023.7 mb 0.00 in0.0 mm 0.00 in0.0 mm 0.00 in0.0 mm
01:45 AM 36.4°F2.4°C 30.8°F-0.7°C 80% 10.0 mph NE16.1 kmh NE 11.1 mph17.9 kmh 30.23 in1023.7 mb 0.00 in0.0 mm 0.00 in0.0 mm 0.00 in0.0 mm
02:00 AM 36.2°F2.3°C 30.0°F-1.1°C 78% 9.0 mph NE14.5 kmh NE 14.1 mph22.7 kmh 30.24 in1024.0 mb 0.00 in0.0 mm 0.00 in0.0 mm 0.00 in0.0 mm
02:15 AM 35.9°F2.2°C 29.7°F-1.3°C 78% 9.0 mph ENE14.5 kmh ENE 12.1 mph19.5 kmh 30.24 in1024.0 mb 0.00 in0.0 mm 0.00 in0.0 mm 0.00 in0.0 mm
02:30 AM 35.8°F2.1°C 29.6°F-1.3°C 78% 5.0 mph N8.0 kmh N 6.1 mph9.8 kmh 30.25 in1024.4 mb 0.00 in0.0 mm 0.00 in0.0 mm 0.00 in0.0 mm
02:45 AM 35.5°F1.9°C 29.3°F-1.5°C 78% 5.0 mph NNE8.0 kmh NNE 10.1 mph16.3 kmh 30.25 in1024.4 mb 0.00 in0.0 mm 0.00 in0.0 mm 0.00 in0.0 mm
03:00 AM 35.4°F1.9°C 29.2°F-1.6°C 78% 8.0 mph N12.9 kmh N 14.1 mph22.7 kmh 30.26 in1024.7 mb 0.00 in0.0 mm 0.00 in0.0 mm 0.00 in0.0 mm
03:15 AM 35.2°F1.8°C 29.3°F-1.5°C 79% 7.0 mph NE11.3 kmh NE 12.1 mph19.5 kmh 30.27 in1025.1 mb 0.00 in0.0 mm 0.00 in0.0 mm 0.00 in0.0 mm
03:30 AM 34.9°F1.6°C 28.7°F-1.8°C 78% 5.0 mph NW8.0 kmh NW 12.1 mph19.5 kmh 30.27 in1025.1 mb 0.00 in0.0 mm 0.00 in0.0 mm 0.00 in0.0 mm
03:45 AM 34.7°F1.5°C 28.5°F-1.9°C 78% 6.0 mph N9.7 kmh N 12.1 mph19.5 kmh 30.28 in1025.4 mb 0.00 in0.0 mm 0.00 in0.0 mm 0.00 in0.0 mm
04:00 AM 34.5°F1.4°C 28.3°F-2.1°C 78% 5.0 mph NNE8.0 kmh NNE 10.1 mph16.3 kmh 30.28 in1025.4 mb 0.00 in0.0 mm 0.00 in0.0 mm 0.00 in0.0 mm
04:15 AM 34.2°F1.2°C 28.4°F-2.0°C 79% 4.0 mph NE6.4 kmh NE 4.0 mph6.4 kmh 30.29 in1025.7 mb 0.00 in0.0 mm 0.00 in0.0 mm 0.00 in0.0 mm
04:30 AM 33.2°F0.7°C 27.1°F-2.7°C 78% 8.0 mph N12.9 kmh N 12.1 mph19.5 kmh 30.30 in1026.1 mb 0.00 in0.0 mm 0.00 in0.0 mm 0.00 in0.0 mm
04:45 AM 32.7°F0.4°C 26.6°F-3.0°C 78% 8.0 mph NNE12.9 kmh NNE 12.1 mph19.5 kmh 30.31 in1026.4 mb 0.00 in0.0 mm 0.00 in0.0 mm 0.00 in0.0 mm
05:00 AM 32.3°F0.2°C 26.5°F-3.1°C 79% 8.0 mph N12.9 kmh N 13.1 mph21.1 kmh 30.32 in1026.8 mb 0.00 in0.0 mm 0.00 in0.0 mm 0.00 in0.0 mm
05:15 AM 31.7°F-0.2°C 25.9°F-3.4°C 79% 9.0 mph N14.5 kmh N 13.1 mph21.1 kmh 30.34 in1027.4 mb 0.00 in0.0 mm 0.00 in0.0 mm 0.00 in0.0 mm
05:30 AM 31.2°F-0.4°C 25.4°F-3.7°C 79% 4.0 mph N6.4 kmh N 10.1 mph16.3 kmh 30.34 in1027.4 mb 0.00 in0.0 mm 0.00 in0.0 mm 0.00 in0.0 mm
05:45 AM 30.8°F-0.7°C 25.0°F-3.9°C 79% 4.0 mph NE6.4 kmh NE 8.1 mph13.0 kmh 30.34 in1027.4 mb 0.00 in0.0 mm 0.00 in0.0 mm 0.00 in0.0 mm
06:00 AM 30.6°F-0.8°C 24.8°F-4.0°C 79% 5.0 mph NNE8.0 kmh NNE 8.1 mph13.0 kmh 30.35 in1027.8 mb 0.00 in0.0 mm 0.00 in0.0 mm 0.00 in0.0 mm
06:15 AM 30.4°F-0.9°C 24.6°F-4.1°C 79% 5.0 mph NNE8.0 kmh NNE 6.1 mph9.8 kmh 30.36 in1028.1 mb 0.00 in0.0 mm 0.00 in0.0 mm 0.00 in0.0 mm
06:30 AM 30.1°F-1.1°C 24.3°F-4.3°C 79% 7.0 mph NNE11.3 kmh NNE 9.1 mph14.6 kmh 30.37 in1028.4 mb 0.00 in0.0 mm 0.00 in0.0 mm 0.00 in0.0 mm
06:45 AM 29.9°F-1.2°C 24.1°F-4.4°C 79% 5.0 mph NNE8.0 kmh NNE 9.1 mph14.6 kmh 30.38 in1028.8 mb 0.00 in0.0 mm 0.00 in0.0 mm 0.00 in0.0 mm
07:00 AM 29.6°F-1.3°C 23.9°F-4.5°C 79% 2.0 mph N3.2 kmh N 8.1 mph13.0 kmh 30.39 in1029.1 mb 0.00 in0.0 mm 0.00 in0.0 mm 0.00 in0.0 mm
07:15 AM 29.2°F-1.6°C 23.5°F-4.7°C 79% 7.0 mph NNE11.3 kmh NNE 12.1 mph19.5 kmh 30.40 in1029.5 mb 0.00 in0.0 mm 0.00 in0.0 mm 0.00 in0.0 mm
07:30 AM 28.9°F-1.7°C 23.0°F-5.0°C 78% Calm Calm 12.1 mph19.5 kmh 30.41 in1029.8 mb 0.00 in0.0 mm 0.00 in0.0 mm 0.00 in0.0 mm
07:45 AM 28.8°F-1.8°C 22.2°F-5.4°C 76% 8.0 mph NE12.9 kmh NE 14.1 mph22.7 kmh 30.42 in1030.1 mb 0.00 in0.0 mm 0.00 in0.0 mm 0.00 in0.0 mm
08:00 AM 28.8°F-1.8°C 21.9°F-5.6°C 75% 3.0 mph N4.8 kmh N 8.1 mph13.0 kmh 30.43 in1030.5 mb 0.00 in0.0 mm 0.00 in0.0 mm 0.00 in0.0 mm
08:15 AM 29.5°F-1.4°C 21.9°F-5.6°C 73% 9.0 mph N14.5 kmh N 11.1 mph17.9 kmh 30.44 in1030.8 mb 0.00 in0.0 mm 0.00 in0.0 mm 0.00 in0.0 mm
08:30 AM 29.3°F-1.5°C 21.4°F-5.9°C 72% 9.0 mph ENE14.5 kmh ENE 10.1 mph16.3 kmh 30.45 in1031.2 mb 0.00 in0.0 mm 0.00 in0.0 mm 0.00 in0.0 mm
08:45 AM 30.1°F-1.1°C 21.5°F-5.8°C 70% 7.0 mph NE11.3 kmh NE 10.1 mph16.3 kmh 30.47 in1031.8 mb 0.00 in0.0 mm 0.00 in0.0 mm 0.00 in0.0 mm
09:00 AM 30.2°F-1.0°C 20.9°F-6.2°C 68% 8.0 mph NNE12.9 kmh NNE 12.1 mph19.5 kmh 30.47 in1031.8 mb 0.00 in0.0 mm 0.00 in0.0 mm 0.00 in0.0 mm
09:15 AM 30.2°F-1.0°C 20.9°F-6.2°C 68% 8.0 mph N12.9 kmh N 11.1 mph17.9 kmh 30.48 in1032.2 mb 0.00 in0.0 mm 0.00 in0.0 mm 0.00 in0.0 mm
09:30 AM 31.2°F-0.4°C 21.1°F-6.1°C 66% 6.0 mph ESE9.7 kmh ESE 10.1 mph16.3 kmh 30.48 in1032.2 mb 0.00 in0.0 mm 0.00 in0.0 mm 0.00 in0.0 mm
09:45 AM 32.1°F0.1°C 20.5°F-6.4°C 62% 2.0 mph E3.2 kmh E 5.1 mph8.2 kmh 30.47 in1031.8 mb 0.00 in0.0 mm 0.00 in0.0 mm 0.00 in0.0 mm
10:00 AM 32.1°F0.1°C 20.1°F-6.6°C 61% 6.0 mph NE9.7 kmh NE 11.1 mph17.9 kmh 30.48 in1032.2 mb 0.00 in0.0 mm 0.00 in0.0 mm 0.00 in0.0 mm
10:15 AM 32.9°F0.5°C 20.9°F-6.2°C 61% 4.0 mph NNE6.4 kmh NNE 8.1 mph13.0 kmh 30.48 in1032.2 mb 0.00 in0.0 mm 0.00 in0.0 mm 0.00 in0.0 mm
10:30 AM 33.3°F0.7°C 20.5°F-6.4°C 59% 9.0 mph NNE14.5 kmh NNE 10.1 mph16.3 kmh 30.48 in1032.2 mb 0.00 in0.0 mm 0.00 in0.0 mm 0.00 in0.0 mm
10:45 AM 34.1°F1.2°C 21.7°F-5.7°C 60% 4.0 mph E6.4 kmh E 8.1 mph13.0 kmh 30.48 in1032.2 mb 0.00 in0.0 mm 0.00 in0.0 mm 0.00 in0.0 mm
11:00 AM 35.1°F1.7°C 22.6°F-5.2°C 60% 6.0 mph ENE9.7 kmh ENE 9.1 mph14.6 kmh 30.48 in1032.2 mb 0.00 in0.0 mm 0.00 in0.0 mm 0.00 in0.0 mm
11:15 AM 35.6°F2.0°C 22.3°F-5.4°C 58% 2.0 mph NNE3.2 kmh NNE 6.1 mph9.8 kmh 30.48 in1032.2 mb 0.00 in0.0 mm 0.00 in0.0 mm 0.00 in0.0 mm
11:30 AM 36.1°F2.3°C 22.8°F-5.1°C 58% 4.0 mph N6.4 kmh N 6.1 mph9.8 kmh 30.47 in1031.8 mb 0.00 in0.0 mm 0.00 in0.0 mm 0.00 in0.0 mm
11:45 AM 36.9°F2.7°C 22.7°F-5.2°C 56% 2.0 mph W3.2 kmh W 7.1 mph11.4 kmh 30.48 in1032.2 mb 0.00 in0.0 mm 0.00 in0.0 mm 0.00 in0.0 mm
12:00 PM 37.6°F3.1°C 23.8°F-4.6°C 57% 3.0 mph WNW4.8 kmh WNW 5.1 mph8.2 kmh 30.47 in1031.8 mb 0.00 in0.0 mm 0.00 in0.0 mm 0.00 in0.0 mm
12:15 PM 38.3°F3.5°C 24.4°F-4.2°C 57% 1.0 mph NE1.6 kmh NE 1.0 mph1.6 kmh 30.45 in1031.2 mb 0.00 in0.0 mm 0.00 in0.0 mm 0.00 in0.0 mm
12:30 PM 39.2°F4.0°C 24.0°F-4.4°C 54% 2.0 mph SSW3.2 kmh SSW 7.1 mph11.4 kmh 30.44 in1030.8 mb 0.00 in0.0 mm 0.00 in0.0 mm 0.00 in0.0 mm
12:45 PM 40.1°F4.5°C 24.4°F-4.2°C 53% 2.0 mph NE3.2 kmh NE 4.0 mph6.4 kmh 30.43 in1030.5 mb 0.00 in0.0 mm 0.00 in0.0 mm 0.00 in0.0 mm
01:00 PM 40.1°F4.5°C 24.8°F-4.0°C 54% 5.0 mph N8.0 kmh N 5.1 mph8.2 kmh 30.42 in1030.1 mb 0.00 in0.0 mm 0.00 in0.0 mm 0.00 in0.0 mm
01:15 PM 40.2°F4.6°C 24.9°F-3.9°C 54% 1.0 mph SW1.6 kmh SW 6.1 mph9.8 kmh 30.42 in1030.1 mb 0.00 in0.0 mm 0.00 in0.0 mm 0.00 in0.0 mm
01:30 PM 40.6°F4.8°C 26.2°F-3.2°C 56% 3.0 mph NW4.8 kmh NW 5.1 mph8.2 kmh 30.42 in1030.1 mb 0.00 in0.0 mm 0.00 in0.0 mm 0.00 in0.0 mm
01:45 PM 41.7°F5.4°C 26.3°F-3.2°C 54% 4.0 mph SW6.4 kmh SW 6.1 mph9.8 kmh 30.40 in1029.5 mb 0.00 in0.0 mm 0.00 in0.0 mm 0.00 in0.0 mm
02:00 PM 41.1°F5.1°C 24.8°F-4.0°C 52% 2.0 mph WSW3.2 kmh WSW 7.1 mph11.4 kmh 30.40 in1029.5 mb 0.00 in0.0 mm 0.00 in0.0 mm 0.00 in0.0 mm
02:15 PM 41.6°F5.3°C 25.3°F-3.7°C 52% 2.0 mph NNE3.2 kmh NNE 4.0 mph6.4 kmh 30.40 in1029.5 mb 0.00 in0.0 mm 0.00 in0.0 mm 0.00 in0.0 mm
02:30 PM 42.0°F5.6°C 25.2°F-3.8°C 51% 4.0 mph S6.4 kmh S 6.1 mph9.8 kmh 30.40 in1029.5 mb 0.00 in0.0 mm 0.00 in0.0 mm 0.00 in0.0 mm
02:45 PM 41.7°F5.4°C 24.5°F-4.2°C 50% 2.0 mph NNW3.2 kmh NNW 6.1 mph9.8 kmh 30.40 in1029.5 mb 0.00 in0.0 mm 0.00 in0.0 mm 0.00 in0.0 mm
03:00 PM 42.0°F5.6°C 26.1°F-3.3°C 53% 6.0 mph WNW9.7 kmh WNW 7.1 mph11.4 kmh 30.41 in1029.8 mb 0.00 in0.0 mm 0.00 in0.0 mm 0.00 in0.0 mm
03:15 PM 42.3°F5.7°C 26.0°F-3.3°C 52% 3.0 mph WNW4.8 kmh WNW 4.0 mph6.4 kmh 30.40 in1029.5 mb 0.00 in0.0 mm 0.00 in0.0 mm 0.00 in0.0 mm
03:30 PM 42.1°F5.6°C 24.8°F-4.0°C 50% 3.0 mph W4.8 kmh W 5.1 mph8.2 kmh 30.40 in1029.5 mb 0.00 in0.0 mm 0.00 in0.0 mm 0.00 in0.0 mm
03:45 PM 42.0°F5.6°C 25.2°F-3.8°C 51% 7.0 mph SW11.3 kmh SW 7.1 mph11.4 kmh 30.39 in1029.1 mb 0.00 in0.0 mm 0.00 in0.0 mm 0.00 in0.0 mm
04:00 PM 41.5°F5.3°C 25.2°F-3.8°C 52% 3.0 mph NW4.8 kmh NW 4.0 mph6.4 kmh 30.41 in1029.8 mb 0.00 in0.0 mm 0.00 in0.0 mm 0.00 in0.0 mm
04:15 PM 41.0°F5.0°C 24.7°F-4.1°C 52% 2.0 mph NW3.2 kmh NW 6.1 mph9.8 kmh 30.40 in1029.5 mb 0.00 in0.0 mm 0.00 in0.0 mm 0.00 in0.0 mm
04:30 PM 40.7°F4.8°C 25.4°F-3.7°C 54% 3.0 mph NW4.8 kmh NW 3.0 mph4.8 kmh 30.41 in1029.8 mb 0.00 in0.0 mm 0.00 in0.0 mm 0.00 in0.0 mm
04:45 PM 40.2°F4.6°C 25.3°F-3.7°C 55% 2.0 mph SSW3.2 kmh SSW 5.1 mph8.2 kmh 30.41 in1029.8 mb 0.00 in0.0 mm 0.00 in0.0 mm 0.00 in0.0 mm
05:00 PM 39.4°F4.1°C 25.0°F-3.9°C 56% 3.0 mph SW4.8 kmh SW 4.0 mph6.4 kmh 30.41 in1029.8 mb 0.00 in0.0 mm 0.00 in0.0 mm 0.00 in0.0 mm
05:15 PM 38.7°F3.7°C 25.6°F-3.6°C 59% 1.0 mph W1.6 kmh W 3.0 mph4.8 kmh 30.42 in1030.1 mb 0.00 in0.0 mm 0.00 in0.0 mm 0.00 in0.0 mm
05:30 PM 37.9°F3.3°C 24.9°F-3.9°C 59% 1.0 mph SW1.6 kmh SW 2.0 mph3.2 kmh 30.41 in1029.8 mb 0.00 in0.0 mm 0.00 in0.0 mm 0.00 in0.0 mm
05:45 PM 37.4°F3.0°C 24.8°F-4.0°C 60% Calm Calm 1.0 mph1.6 kmh 30.41 in1029.8 mb 0.00 in0.0 mm 0.00 in0.0 mm 0.00 in0.0 mm
06:00 PM 36.4°F2.4°C 24.6°F-4.1°C 62% Calm Calm 1.0 mph1.6 kmh 30.41 in1029.8 mb 0.00 in0.0 mm 0.00 in0.0 mm 0.00 in0.0 mm
06:15 PM 34.9°F1.6°C 24.3°F-4.3°C 65% Calm Calm -- 30.42 in1030.1 mb 0.00 in0.0 mm 0.00 in0.0 mm 0.00 in0.0 mm
06:30 PM 34.3°F1.3°C 24.8°F-4.0°C 68% Calm Calm -- 30.44 in1030.8 mb 0.00 in0.0 mm 0.00 in0.0 mm 0.00 in0.0 mm
06:45 PM 33.4°F0.8°C 24.7°F-4.1°C 70% Calm Calm -- 30.44 in1030.8 mb 0.00 in0.0 mm 0.00 in0.0 mm 0.00 in0.0 mm
07:00 PM 32.9°F0.5°C 25.2°F-3.8°C 73% Calm Calm -- 30.44 in1030.8 mb 0.00 in0.0 mm 0.00 in0.0 mm 0.00 in0.0 mm
07:15 PM 32.1°F0.1°C 24.4°F-4.2°C 73% Calm Calm -- 30.44 in1030.8 mb 0.00 in0.0 mm 0.00 in0.0 mm 0.00 in0.0 mm
07:30 PM 31.6°F-0.2°C 24.6°F-4.1°C 75% Calm Calm -- 30.45 in1031.2 mb 0.00 in0.0 mm 0.00 in0.0 mm 0.00 in0.0 mm
07:45 PM 31.2°F-0.4°C 24.8°F-4.0°C 77% 2.0 mph S3.2 kmh S 3.0 mph4.8 kmh 30.45 in1031.2 mb 0.00 in0.0 mm 0.00 in0.0 mm 0.00 in0.0 mm
08:00 PM 30.9°F-0.6°C 24.8°F-4.0°C 78% Calm Calm -- 30.45 in1031.2 mb 0.00 in0.0 mm 0.00 in0.0 mm 0.00 in0.0 mm
08:15 PM 30.4°F-0.9°C 24.3°F-4.3°C 78% Calm Calm 1.0 mph1.6 kmh 30.45 in1031.2 mb 0.00 in0.0 mm 0.00 in0.0 mm 0.00 in0.0 mm
08:30 PM 30.1°F-1.1°C 24.3°F-4.3°C 79% 2.0 mph SSE3.2 kmh SSE 2.0 mph3.2 kmh 30.46 in1031.5 mb 0.00 in0.0 mm 0.00 in0.0 mm 0.00 in0.0 mm
08:45 PM 30.7°F-0.7°C 24.9°F-3.9°C 79% 2.0 mph SE3.2 kmh SE 3.0 mph4.8 kmh 30.45 in1031.2 mb 0.00 in0.0 mm 0.00 in0.0 mm 0.00 in0.0 mm
09:00 PM 30.2°F-1.0°C 24.7°F-4.1°C 80% 2.0 mph S3.2 kmh S 4.0 mph6.4 kmh 30.46 in1031.5 mb 0.00 in0.0 mm 0.00 in0.0 mm 0.00 in0.0 mm
09:15 PM 30.7°F-0.7°C 24.9°F-3.9°C 79% Calm Calm 1.0 mph1.6 kmh 30.46 in1031.5 mb 0.00 in0.0 mm 0.00 in0.0 mm 0.00 in0.0 mm
09:30 PM 30.3°F-0.9°C 25.1°F-3.8°C 81% Calm Calm -- 30.48 in1032.2 mb 0.00 in0.0 mm 0.00 in0.0 mm 0.00 in0.0 mm
09:45 PM 29.8°F-1.2°C 24.9°F-3.9°C 82% Calm Calm -- 30.48 in1032.2 mb 0.00 in0.0 mm 0.00 in0.0 mm 0.00 in0.0 mm
10:00 PM 29.3°F-1.5°C 24.7°F-4.1°C 83% Calm Calm 2.0 mph3.2 kmh 30.48 in1032.2 mb 0.00 in0.0 mm 0.00 in0.0 mm 0.00 in0.0 mm
10:15 PM 28.8°F-1.8°C 24.3°F-4.3°C 83% Calm Calm -- 30.49 in1032.5 mb 0.00 in0.0 mm 0.00 in0.0 mm 0.00 in0.0 mm
10:30 PM 28.5°F-1.9°C 24.3°F-4.3°C 84% 2.0 mph SSW3.2 kmh SSW 2.0 mph3.2 kmh 30.48 in1032.2 mb 0.00 in0.0 mm 0.00 in0.0 mm 0.00 in0.0 mm
10:45 PM 28.3°F-2.1°C 24.4°F-4.2°C 85% 1.0 mph SSW1.6 kmh SSW 1.0 mph1.6 kmh 30.49 in1032.5 mb 0.00 in0.0 mm 0.00 in0.0 mm 0.00 in0.0 mm
11:00 PM 28.0°F-2.2°C 24.4°F-4.2°C 86% Calm Calm -- 30.48 in1032.2 mb 0.00 in0.0 mm 0.00 in0.0 mm 0.00 in0.0 mm
11:15 PM 27.9°F-2.3°C 24.3°F-4.3°C 86% Calm Calm -- 30.48 in1032.2 mb 0.00 in0.0 mm 0.00 in0.0 mm 0.00 in0.0 mm
11:30 PM 27.7°F-2.4°C 24.7°F-4.1°C 88% 5.0 mph ENE8.0 kmh ENE 5.1 mph8.2 kmh 30.49 in1032.5 mb 0.00 in0.0 mm 0.00 in0.0 mm 0.00 in0.0 mm
11:45 PM 27.8°F-2.3°C 24.2°F-4.3°C 86% 1.0 mph ENE1.6 kmh ENE 2.0 mph3.2 kmh 30.48 in1032.2 mb 0.00 in0.0 mm 0.00 in0.0 mm 0.00 in0.0 mm